KMGW

Morgantown Municipal-Walter L Bill Hart Field Airport

Morgantown, West Virginia, USA
METAR KMGW 170553Z AUTO 20005KT 10SM CLR 03/M04 A3019 RMK AO2 SLP231 T00281044 10039 20011 51010
Observed Flight Rules
Dec-17 @ 05:53 UTC (28 minutes ago) Visual Flight Rules
Wind Visibility Clouds
200° at 5 knots 10 miles
  • Clear skies
Temperatures Readings
Current 3°C / 37°F
Dewpoint -4°C / 25°F
Humidity 60%
Altimeter 30.19" Hg
Pressure 1023.1 hPa
Elevation 378
METAR KMGW 170553Z AUTO 20005KT 10SM CLR 03/M04 A3019 RMK AO2 SLP231 T00281044 10039 20011 51010
Observed Flight Rules
Dec-17 @ 05:53 UTC
(28 minutes ago)
VFR
Wind Visibility
200° at 5 knots 10 miles
Clouds
  • Clear skies
Temperature Dewpoint
3°C / 37°F -4°C / 25°F
Humidity Altimeter Pressure
60% 30.19" Hg 1023.1 hPa